Etusivu
METAR-TAF:

METAR-TAF

Lentoasemat :

Baton Rouge, Louisiana, Yhdysvallat

Leveyspiiri: 30-32-14N, Pituuspiiri: 091-08-49W, korkeus merenpinnasta: 21 m

Tämänhetkinen sää

Tämä raportti tehtiin 56 minuuttia sitten, kello 20.53 UTC
Tuuli 3 kn eri suunnista
Lämpötila 17°C
Kosteus 25%
Ilmanpaine 1019 hPa
Näkyvyys: 16.1 km
selkeää

METAR: KBTR 162053Z VRB03KT 10SM CLR 17/M03 A3009 RMK AO2 SLP190 T01721033 56030

Aika: 15:49 (21:49 UTC)

Sääennuste

Tämä raportti tehtiin 4 tuntia ja 10 minuuttia sitten, kello 17.39 UTC
Ennuste voimassa 16. päivästä klo 18 UTC - 17. päivään klo 18 UTC
Tuuli 5 kn pohjoisen/luoteesta
Näkyvyys: 10 km
selkeää
From 16. päivästä klo 2300 UTC
Tuuli 2 kn eri suunnista
Näkyvyys: 10 km
Muutamia pilviä 15000 ft:n korkeudessa
Muutamia pilviä 25000 ft:n korkeudessa

TAF: KBTR 161739Z 1618/1718 34005KT P6SM SKC FM162300 VRB02KT P6SM FEW150 FEW250

Säähavainnot ja -ennusteet yli 4000 lentoasemalta (METAR- ja TAF-raportit).

Käytössä olevat sääasemat on merkitty karttaan keltaisilla ja punaisilla pisteillä.

Aseta hiiri pisteen päälle nähdäksesi sääaseman nimen.

Klikkaa sitten nähdäksesi säähavainnot ja -ennusteet.

Kartan vaihtaminen: klikkaa mustalla rastilla varustettuja vihreitä pisteitä, niin voit zoomata sisään; viivalla varustettua vihreää pistettä, niin voit zoomata ulos tai vihreitä nuolia, niin pääset viereisille kartoille.


METAR-TAF: